Time;durP1;ratioP1;P1;durP2;ratioP2;P2;SDS_P1;SDS_P2;PMS_P1;PMS_P2;Temp;Humidity;BMP_temperature;BMP_pressure;BME280_temperature;BME280_humidity;BME280_pressure;Samples;Min_cycle;Max_cycle;Signal;HPM_P1;HPM_P2
2023/08/09 00:01:02;;;;;;;11.40;6.37;;;16.10;93.90;;;;;;5035218;28;20672;-71
2023/08/09 00:03:27;;;;;;;10.90;7.17;;;16.10;93.10;;;;;;5034832;28;20387;-73
2023/08/09 00:05:53;;;;;;;10.07;6.60;;;16.10;96.30;;;;;;5028278;28;20408;-71
2023/08/09 00:08:18;;;;;;;10.90;6.43;;;16.20;93.60;;;;;;5014898;28;20397;-73
2023/08/09 00:10:44;;;;;;;8.63;5.80;;;16.20;93.00;;;;;;5028711;28;20538;-72
2023/08/09 00:13:09;;;;;;;11.37;6.80;;;16.10;94.40;;;;;;5035696;28;20499;-72
2023/08/09 00:15:35;;;;;;;11.48;6.18;;;16.10;96.70;;;;;;5038466;28;20475;-72
2023/08/09 00:18:01;;;;;;;9.13;6.80;;;16.10;97.00;;;;;;5038263;28;20418;-72
2023/08/09 00:20:27;;;;;;;10.35;6.60;;;16.00;99.50;;;;;;5020844;28;20951;-71
2023/08/09 00:22:52;;;;;;;8.85;6.53;;;16.10;96.80;;;;;;5038419;28;20395;-73
2023/08/09 00:25:18;;;;;;;14.03;7.40;;;16.10;96.60;;;;;;5039273;28;20390;-73
2023/08/09 00:27:43;;;;;;;11.55;6.65;;;16.10;94.90;;;;;;5038988;28;20908;-72
2023/08/09 00:30:14;;;;;;;12.93;6.80;;;16.10;96.80;;;;;;5036949;28;20844;-70
2023/08/09 00:32:40;;;;;;;12.50;6.57;;;16.10;99.70;;;;;;5037823;28;20421;-73
2023/08/09 00:35:06;;;;;;;15.73;6.63;;;16.10;97.80;;;;;;5036500;28;20470;-70
2023/08/09 00:37:32;;;;;;;8.43;5.00;;;16.10;98.80;;;;;;5036373;28;20403;-72
2023/08/09 00:39:58;;;;;;;6.45;3.83;;;15.90;92.00;;;;;;5034631;28;20383;-73
2023/08/09 00:42:24;;;;;;;6.97;3.90;;;15.60;95.90;;;;;;5034115;28;20391;-72
2023/08/09 00:44:50;;;;;;;4.70;3.88;;;15.40;99.90;;;;;;5035087;28;20418;-70
2023/08/09 00:47:16;;;;;;;6.32;3.90;;;15.40;99.90;;;;;;5033709;28;20803;-71
2023/08/09 00:49:42;;;;;;;4.20;3.60;;;15.30;99.90;;;;;;5033950;28;20395;-70
2023/08/09 00:52:08;;;;;;;5.85;3.70;;;15.20;99.90;;;;;;5033317;28;20485;-73
2023/08/09 00:54:38;;;;;;;3.80;3.40;;;15.20;99.90;;;;;;5033651;28;20419;-72
2023/08/09 00:57:05;;;;;;;3.40;2.90;;;15.10;99.90;;;;;;5033140;28;20564;-70
2023/08/09 00:59:31;;;;;;;3.00;2.50;;;15.10;99.90;;;;;;5032878;28;20500;-73
2023/08/09 01:01:57;;;;;;;2.00;1.90;;;15.00;99.90;;;;;;5032317;28;20412;-72
2023/08/09 01:04:22;;;;;;;2.10;1.90;;;15.00;99.90;;;;;;5032297;28;20485;-73
2023/08/09 01:07:24;;;;;;;2.08;1.90;;;14.90;99.90;;;;;;5032307;28;20394;-73
2023/08/09 01:10:15;;;;;;;1.90;1.80;;;14.80;99.90;;;;;;5029006;28;20868;-72
2023/08/09 01:12:46;;;;;;;1.75;1.60;;;14.80;99.90;;;;;;5017687;28;20451;-72
2023/08/09 01:15:15;;;;;;;1.87;1.67;;;14.80;99.90;;;;;;5013181;28;20380;-72
2023/08/09 01:17:41;;;;;;;2.53;1.80;;;14.80;99.90;;;;;;5035499;22;20426;-70
2023/08/09 01:20:11;;;;;;;5.32;2.08;;;14.80;99.90;;;;;;5030954;28;20450;-70
2023/08/09 01:22:40;;;;;;;2.15;1.95;;;14.80;99.90;;;;;;5030270;28;20375;-69
2023/08/09 01:25:07;;;;;;;3.70;2.20;;;14.80;99.90;;;;;;5030750;28;20372;-70
2023/08/09 01:27:35;;;;;;;2.30;2.10;;;14.70;99.90;;;;;;5030509;28;20387;-70
2023/08/09 01:30:01;;;;;;;4.30;2.33;;;14.80;99.90;;;;;;5031218;28;20514;-69
2023/08/09 01:32:28;;;;;;;2.43;2.10;;;14.70;99.90;;;;;;5030224;28;20395;-69
2023/08/09 01:34:55;;;;;;;5.82;2.75;;;14.70;99.90;;;;;;5030495;28;20387;-69
2023/08/09 01:37:32;;;;;;;2.60;2.40;;;14.70;99.90;;;;;;5030301;28;20414;-70
2023/08/09 01:40:00;;;;;;;3.95;2.70;;;14.70;99.90;;;;;;5012878;28;20403;-69
2023/08/09 01:42:26;;;;;;;5.32;3.17;;;14.70;99.90;;;;;;5032206;28;20387;-69
2023/08/09 01:44:53;;;;;;;3.33;2.90;;;14.60;99.90;;;;;;5034997;28;20492;-69
2023/08/09 01:47:19;;;;;;;4.28;3.70;;;14.70;99.90;;;;;;5034609;28;20422;-69
2023/08/09 01:49:48;;;;;;;4.28;3.58;;;14.70;99.90;;;;;;5035053;28;20390;-69
2023/08/09 01:52:14;;;;;;;4.13;2.88;;;14.80;99.90;;;;;;5034377;28;20804;-69
2023/08/09 01:54:41;;;;;;;3.50;3.20;;;14.90;99.90;;;;;;5034319;28;20387;-69
2023/08/09 01:57:07;;;;;;;5.40;3.03;;;14.90;99.90;;;;;;5034114;28;20596;-69
2023/08/09 01:59:32;;;;;;;4.20;3.50;;;14.90;99.90;;;;;;5034307;28;20732;-69
2023/08/09 02:01:58;;;;;;;6.00;4.10;;;14.90;99.90;;;;;;5033967;28;20391;-69
2023/08/09 02:04:23;;;;;;;7.47;4.65;;;15.00;99.90;;;;;;5033771;28;20929;-69
2023/08/09 02:06:49;;;;;;;6.75;4.53;;;14.90;99.90;;;;;;5033725;28;20462;-69
2023/08/09 02:09:15;;;;;;;7.60;4.63;;;14.80;99.90;;;;;;5033786;28;20457;-69
2023/08/09 02:11:40;;;;;;;6.73;4.90;;;14.90;99.90;;;;;;5033643;28;20399;-69
2023/08/09 02:14:06;;;;;;;9.83;5.60;;;14.90;99.90;;;;;;5033961;28;20393;-69
2023/08/09 02:16:32;;;;;;;9.80;5.60;;;15.00;99.90;;;;;;5033605;28;20390;-69
2023/08/09 02:18:58;;;;;;;10.07;5.30;;;14.90;99.90;;;;;;5033950;28;20395;-69
2023/08/09 02:21:23;;;;;;;9.90;6.53;;;14.70;99.90;;;;;;5033654;28;20871;-69
2023/08/09 02:23:49;;;;;;;14.70;6.70;;;14.80;99.90;;;;;;5033901;28;20478;-69
2023/08/09 02:26:15;;;;;;;10.85;6.68;;;14.60;99.90;;;;;;5033747;28;20383;-70
2023/08/09 02:28:41;;;;;;;14.00;7.50;;;14.70;99.90;;;;;;5033646;28;20390;-70
2023/08/09 02:31:10;;;;;;;13.00;7.75;;;14.60;99.90;;;;;;5033344;28;20387;-70
2023/08/09 02:33:36;;;;;;;11.93;7.40;;;14.70;99.90;;;;;;4999708;28;20391;-68
2023/08/09 02:36:04;;;;;;;11.73;7.50;;;14.70;99.90;;;;;;5033755;28;20407;-68
2023/08/09 02:38:31;;;;;;;12.27;7.93;;;14.70;99.90;;;;;;5033192;28;20556;-68
2023/08/09 02:40:57;;;;;;;11.53;7.03;;;14.90;99.90;;;;;;5033266;28;20387;-69
2023/08/09 02:43:24;;;;;;;12.60;8.00;;;14.90;99.90;;;;;;5033561;28;20888;-69
2023/08/09 02:45:50;;;;;;;14.30;8.60;;;15.20;99.90;;;;;;5033324;28;20860;-69
2023/08/09 02:48:16;;;;;;;14.88;8.32;;;15.30;99.90;;;;;;5033312;28;20751;-68
2023/08/09 02:50:42;;;;;;;15.02;8.30;;;15.30;98.20;;;;;;5033311;28;20394;-68
2023/08/09 02:53:11;;;;;;;19.90;9.30;;;15.30;96.50;;;;;;5032933;28;20394;-69
2023/08/09 02:55:36;;;;;;;14.93;8.75;;;15.30;98.10;;;;;;5033366;28;20748;-68
2023/08/09 02:58:04;;;;;;;13.35;8.70;;;15.30;97.60;;;;;;5033326;28;20399;-69
2023/08/09 03:00:33;;;;;;;15.57;7.70;;;15.30;98.00;;;;;;5033055;28;20430;-69
2023/08/09 03:02:59;;;;;;;14.52;8.68;;;15.00;99.90;;;;;;5032941;28;20482;-69
2023/08/09 03:05:25;;;;;;;10.73;7.27;;;15.10;99.90;;;;;;5033048;28;20478;-69
2023/08/09 03:07:51;;;;;;;13.38;8.00;;;15.20;99.90;;;;;;5032956;28;20564;-69
2023/08/09 03:10:17;;;;;;;13.47;8.13;;;15.20;97.20;;;;;;5032962;28;20478;-69
2023/08/09 03:12:44;;;;;;;15.02;8.60;;;15.10;99.90;;;;;;5032797;28;20598;-69
2023/08/09 03:15:10;;;;;;;16.67;8.80;;;15.00;99.90;;;;;;5032886;28;20529;-69
2023/08/09 03:17:36;;;;;;;16.67;9.80;;;14.80;99.90;;;;;;5032491;28;20411;-69
2023/08/09 03:20:09;;;;;;;14.77;9.00;;;14.80;99.90;;;;;;5032631;28;20469;-69
2023/08/09 03:22:35;;;;;;;15.77;9.80;;;14.80;99.90;;;;;;5032336;28;20449;-69
2023/08/09 03:25:00;;;;;;;13.60;9.40;;;15.20;99.90;;;;;;5032731;28;20395;-68
2023/08/09 03:27:26;;;;;;;12.05;7.07;;;15.20;99.90;;;;;;5032785;28;20387;-69
2023/08/09 03:29:51;;;;;;;8.25;5.63;;;15.40;98.30;;;;;;5032989;28;20391;-69
2023/08/09 03:32:17;;;;;;;9.07;6.27;;;15.40;94.90;;;;;;5032373;28;20383;-70
2023/08/09 03:34:42;;;;;;;8.40;6.00;;;15.30;97.20;;;;;;5032348;28;20486;-70
2023/08/09 03:37:08;;;;;;;9.20;5.30;;;15.20;99.90;;;;;;5032100;28;20407;-70
2023/08/09 03:39:34;;;;;;;6.18;4.78;;;15.30;99.20;;;;;;5031964;28;20387;-69
2023/08/09 03:41:59;;;;;;;5.27;4.40;;;15.30;98.10;;;;;;5031772;28;20470;-69
2023/08/09 03:44:25;;;;;;;5.27;4.23;;;15.30;97.60;;;;;;5031945;28;20379;-69
2023/08/09 03:46:50;;;;;;;7.07;4.90;;;15.20;97.90;;;;;;5032111;28;20484;-69
2023/08/09 03:49:16;;;;;;;8.02;5.70;;;15.10;99.90;;;;;;5031953;28;20394;-69
2023/08/09 03:51:41;;;;;;;6.80;5.30;;;15.20;98.40;;;;;;5014192;28;20394;-69
2023/08/09 03:54:07;;;;;;;8.40;5.93;;;15.10;98.70;;;;;;5032695;28;20449;-69
2023/08/09 03:56:33;;;;;;;13.80;7.68;;;15.10;99.90;;;;;;5032127;28;20399;-69
2023/08/09 03:58:58;;;;;;;9.02;6.13;;;15.00;99.70;;;;;;5033238;28;20411;-69
2023/08/09 04:01:24;;;;;;;8.90;5.50;;;14.90;99.90;;;;;;5032605;28;20895;-70
2023/08/09 04:03:49;;;;;;;5.70;4.27;;;14.90;99.90;;;;;;5032281;28;20407;-70
2023/08/09 04:06:15;;;;;;;5.03;3.97;;;14.80;99.90;;;;;;5031380;28;20410;-69
2023/08/09 04:08:41;;;;;;;5.15;3.05;;;14.80;99.90;;;;;;5031666;28;20466;-70
2023/08/09 04:11:07;;;;;;;3.53;2.95;;;14.80;99.90;;;;;;5036309;28;20387;-70
2023/08/09 04:13:32;;;;;;;5.18;3.58;;;14.70;99.90;;;;;;5036384;28;20388;-70
2023/08/09 04:15:58;;;;;;;3.90;3.28;;;14.70;99.90;;;;;;5031609;28;20387;-70
2023/08/09 04:18:24;;;;;;;7.93;3.97;;;14.80;99.90;;;;;;5031527;28;20434;-70
2023/08/09 04:20:50;;;;;;;6.27;3.90;;;14.80;99.90;;;;;;5031953;28;20387;-70
2023/08/09 04:23:18;;;;;;;6.65;4.00;;;14.80;99.90;;;;;;5032795;28;20805;-70
2023/08/09 04:25:43;;;;;;;6.28;4.07;;;14.90;99.90;;;;;;5034478;28;20732;-71
2023/08/09 04:28:09;;;;;;;8.27;4.05;;;15.00;99.90;;;;;;5032505;28;20393;-71
2023/08/09 04:30:35;;;;;;;11.18;7.28;;;15.10;99.90;;;;;;5032307;28;20441;-70
2023/08/09 04:33:03;;;;;;;15.20;8.70;;;15.10;99.90;;;;;;5037044;28;20379;-70
2023/08/09 04:35:30;;;;;;;14.18;8.73;;;15.10;99.70;;;;;;5036700;28;20391;-71
2023/08/09 04:37:55;;;;;;;13.20;8.95;;;15.20;95.90;;;;;;5031474;28;20403;-70
2023/08/09 04:40:21;;;;;;;18.20;12.00;;;15.20;96.80;;;;;;5031408;28;20926;-70
2023/08/09 04:42:47;;;;;;;23.58;13.25;;;15.20;96.70;;;;;;5031213;28;20390;-70
2023/08/09 04:45:13;;;;;;;25.27;14.20;;;15.20;90.90;;;;;;5034019;28;20736;-70
2023/08/09 04:47:39;;;;;;;24.95;15.07;;;15.20;92.20;;;;;;5032752;28;20398;-70
2023/08/09 04:50:06;;;;;;;25.52;15.30;;;15.30;95.30;;;;;;5031537;28;20900;-70
2023/08/09 04:52:34;;;;;;;32.00;17.55;;;15.30;92.30;;;;;;5031178;28;20466;-70
2023/08/09 04:55:00;;;;;;;30.30;17.30;;;15.40;88.40;;;;;;5032083;28;20725;-70
2023/08/09 04:57:26;;;;;;;29.70;16.08;;;15.40;89.00;;;;;;5031425;28;20411;-70
2023/08/09 04:59:52;;;;;;;28.20;15.40;;;15.40;87.40;;;;;;5031652;28;20812;-70
2023/08/09 05:02:17;;;;;;;26.63;15.38;;;15.50;88.80;;;;;;5031511;28;20379;-70
2023/08/09 05:04:43;;;;;;;28.92;16.00;;;15.50;88.70;;;;;;5033665;28;20524;-71
2023/08/09 05:07:09;;;;;;;28.67;16.35;;;15.60;89.30;;;;;;5031011;28;20398;-72
2023/08/09 05:09:35;;;;;;;26.43;15.70;;;15.50;89.70;;;;;;5033097;28;20388;-70
2023/08/09 05:12:00;;;;;;;26.83;16.33;;;15.40;95.10;;;;;;5030345;28;20391;-69
2023/08/09 05:14:26;;;;;;;34.80;17.30;;;15.40;97.60;;;;;;5030564;28;20391;-70
2023/08/09 05:16:53;;;;;;;31.23;16.00;;;15.40;95.80;;;;;;5029520;28;20764;-69
2023/08/09 05:19:20;;;;;;;30.67;17.00;;;15.30;94.50;;;;;;5030237;28;20844;-70
2023/08/09 05:21:46;;;;;;;25.13;14.90;;;15.30;94.40;;;;;;5030139;28;20391;-70
2023/08/09 05:24:12;;;;;;;28.17;16.10;;;15.30;94.60;;;;;;5030299;28;20761;-70
2023/08/09 05:26:38;;;;;;;27.65;16.05;;;15.30;94.70;;;;;;5030030;28;20721;-70
2023/08/09 05:29:03;;;;;;;27.50;16.80;;;15.30;92.80;;;;;;5030616;28;20477;-70
2023/08/09 05:31:29;;;;;;;23.50;14.80;;;15.50;93.40;;;;;;5012460;28;20398;-69
2023/08/09 05:33:56;;;;;;;24.80;15.10;;;15.70;84.10;;;;;;5030537;28;20724;-69
2023/08/09 05:36:22;;;;;;;25.98;16.17;;;15.80;82.60;;;;;;5030391;28;20390;-69
2023/08/09 05:38:47;;;;;;;22.20;15.13;;;15.90;81.00;;;;;;5030180;28;20914;-69
2023/08/09 05:41:13;;;;;;;25.63;15.90;;;15.80;79.90;;;;;;5030165;28;20478;-69
2023/08/09 05:43:38;;;;;;;28.20;18.35;;;15.90;80.60;;;;;;5030339;28;20382;-69
2023/08/09 05:46:04;;;;;;;26.43;18.20;;;15.90;78.70;;;;;;5029874;28;20841;-69
2023/08/09 05:48:30;;;;;;;30.13;19.53;;;16.00;81.00;;;;;;5029917;28;20402;-70
2023/08/09 05:50:55;;;;;;;30.70;18.70;;;16.10;78.00;;;;;;5029955;28;20438;-70
2023/08/09 05:53:21;;;;;;;28.83;19.88;;;16.00;81.70;;;;;;5029559;28;20455;-70
2023/08/09 05:55:47;;;;;;;32.38;20.40;;;16.00;78.20;;;;;;5029956;28;20391;-70
2023/08/09 05:58:14;;;;;;;32.72;21.55;;;16.00;72.60;;;;;;5031183;28;20903;-71
2023/08/09 06:00:39;;;;;;;38.50;24.23;;;16.10;72.60;;;;;;5036050;28;20497;-70
2023/08/09 06:03:05;;;;;;;39.88;24.52;;;16.10;72.40;;;;;;5029625;28;20451;-71
2023/08/09 06:05:31;;;;;;;39.20;25.17;;;16.20;69.40;;;;;;5012431;28;20407;-70
2023/08/09 06:07:57;;;;;;;40.60;25.90;;;16.20;69.50;;;;;;5029229;28;20406;-70
2023/08/09 06:10:23;;;;;;;40.50;25.30;;;16.20;70.00;;;;;;5029699;28;20423;-69
2023/08/09 06:12:50;;;;;;;39.38;26.23;;;16.40;66.90;;;;;;5011992;28;20879;-69
2023/08/09 06:15:16;;;;;;;45.33;26.65;;;16.50;61.70;;;;;;5029809;28;20795;-70
2023/08/09 06:17:42;;;;;;;37.38;24.60;;;16.50;60.70;;;;;;5029516;28;20780;-69
2023/08/09 06:20:08;;;;;;;41.78;27.25;;;16.70;58.30;;;;;;5030063;28;20379;-71
2023/08/09 06:22:34;;;;;;;39.63;26.87;;;16.80;60.00;;;;;;5029893;28;20386;-70
2023/08/09 06:25:00;;;;;;;40.13;25.30;;;17.20;55.80;;;;;;5029511;28;20383;-70
2023/08/09 06:27:26;;;;;;;39.72;26.40;;;17.30;52.30;;;;;;5029495;28;20391;-71
2023/08/09 06:29:51;;;;;;;45.97;28.13;;;17.40;53.80;;;;;;5033604;28;20457;-70
2023/08/09 06:32:17;;;;;;;43.17;28.83;;;17.50;55.40;;;;;;5033242;28;20491;-70
2023/08/09 06:34:42;;;;;;;46.50;27.47;;;17.40;53.40;;;;;;5033619;28;20398;-71
2023/08/09 06:37:08;;;;;;;48.28;29.30;;;17.60;50.60;;;;;;5033215;28;20403;-69
2023/08/09 06:39:34;;;;;;;45.43;28.73;;;17.80;49.10;;;;;;5033342;28;20919;-70
2023/08/09 06:42:00;;;;;;;47.33;26.50;;;18.00;46.60;;;;;;5033164;28;20782;-69
2023/08/09 06:44:26;;;;;;;39.17;25.83;;;17.80;43.90;;;;;;5033340;28;20379;-70
2023/08/09 06:46:53;;;;;;;49.00;29.20;;;17.40;45.20;;;;;;5033066;28;20391;-70
2023/08/09 06:49:21;;;;;;;46.95;28.90;;;17.30;48.90;;;;;;5030346;28;20493;-70
2023/08/09 06:51:46;;;;;;;49.50;31.37;;;17.20;47.40;;;;;;5030505;28;20405;-69
2023/08/09 06:54:12;;;;;;;54.57;30.63;;;17.30;48.20;;;;;;5030802;28;20395;-71
2023/08/09 06:56:38;;;;;;;48.80;31.40;;;17.40;48.00;;;;;;5016813;28;20409;-70
2023/08/09 06:59:04;;;;;;;47.17;29.17;;;17.40;48.50;;;;;;5030939;28;20783;-71
2023/08/09 07:01:30;;;;;;;40.77;24.83;;;17.50;49.80;;;;;;5030188;28;20402;-71
2023/08/09 07:03:56;;;;;;;33.83;23.77;;;17.70;46.90;;;;;;5031065;28;20399;-69
2023/08/09 07:06:22;;;;;;;36.13;23.13;;;17.80;45.00;;;;;;5030143;28;20418;-69
2023/08/09 07:08:48;;;;;;;36.22;23.35;;;17.70;45.10;;;;;;5028358;28;20901;-71
2023/08/09 07:11:14;;;;;;;34.38;22.77;;;17.60;46.20;;;;;;5031054;28;20449;-71
2023/08/09 07:13:40;;;;;;;32.53;21.27;;;17.90;46.40;;;;;;5031724;28;20406;-70
2023/08/09 07:16:05;;;;;;;29.90;19.95;;;18.00;45.80;;;;;;5031726;28;20751;-69
2023/08/09 07:18:31;;;;;;;36.15;20.17;;;17.80;46.40;;;;;;5030193;28;20423;-70
2023/08/09 07:20:57;;;;;;;28.27;17.70;;;17.60;48.60;;;;;;5029662;28;20410;-70
2023/08/09 07:23:23;;;;;;;18.77;12.50;;;17.30;48.60;;;;;;5038228;28;20809;-70
2023/08/09 07:25:48;;;;;;;18.80;13.33;;;17.20;47.60;;;;;;5039720;28;20388;-69
2023/08/09 07:28:14;;;;;;;20.80;11.73;;;17.30;48.40;;;;;;5026708;28;20411;-69
2023/08/09 07:30:40;;;;;;;16.48;11.15;;;17.60;46.60;;;;;;5031193;28;20395;-71
2023/08/09 07:33:06;;;;;;;18.35;11.68;;;18.40;41.30;;;;;;5031960;28;20749;-69
2023/08/09 07:35:31;;;;;;;16.70;10.90;;;18.80;39.00;;;;;;5033964;28;20441;-70
2023/08/09 07:37:57;;;;;;;18.30;11.13;;;18.80;39.80;;;;;;5032593;28;20403;-70
2023/08/09 07:40:23;;;;;;;15.00;10.23;;;19.10;40.60;;;;;;5031767;28;20394;-70
2023/08/09 07:42:48;;;;;;;14.65;9.02;;;19.40;37.80;;;;;;5033700;28;20403;-71
2023/08/09 07:45:14;;;;;;;13.95;9.70;;;19.30;37.20;;;;;;5032210;28;20394;-70
2023/08/09 07:47:40;;;;;;;11.83;7.80;;;19.10;37.40;;;;;;5032529;28;20379;-69
2023/08/09 07:50:07;;;;;;;17.08;9.20;;;19.10;37.20;;;;;;5031755;28;20405;-70
2023/08/09 07:52:33;;;;;;;14.30;8.73;;;18.90;38.80;;;;;;5031599;28;20403;-69
2023/08/09 07:54:59;;;;;;;15.13;8.90;;;18.70;39.40;;;;;;5032145;28;20402;-70
2023/08/09 07:57:25;;;;;;;11.63;8.60;;;18.80;38.30;;;;;;5032068;28;20407;-70
2023/08/09 07:59:50;;;;;;;10.73;7.32;;;18.80;38.60;;;;;;5031903;28;20387;-69
2023/08/09 08:02:17;;;;;;;9.05;6.13;;;19.20;37.40;;;;;;5031611;28;20951;-69
2023/08/09 08:04:42;;;;;;;8.30;6.72;;;19.50;35.60;;;;;;5031668;28;20414;-70
2023/08/09 08:07:10;;;;;;;11.77;6.10;;;19.50;36.50;;;;;;5032268;28;20379;-70
2023/08/09 08:09:40;;;;;;;10.90;6.45;;;19.40;35.50;;;;;;5031810;28;20458;-70
2023/08/09 08:12:08;;;;;;;8.18;5.95;;;19.40;33.60;;;;;;5032154;28;20448;-71
2023/08/09 08:14:34;;;;;;;6.73;5.50;;;19.30;35.70;;;;;;5031052;28;20393;-70
2023/08/09 08:17:00;;;;;;;5.28;4.25;;;19.00;33.30;;;;;;5030901;28;20406;-70
2023/08/09 08:19:26;;;;;;;8.02;4.40;;;18.70;34.80;;;;;;5031510;28;20470;-71
2023/08/09 08:21:51;;;;;;;4.80;3.40;;;18.50;36.00;;;;;;5031248;28;20375;-69
2023/08/09 08:24:17;;;;;;;8.27;4.27;;;18.60;35.30;;;;;;5031854;28;20491;-70
2023/08/09 08:26:43;;;;;;;7.95;4.03;;;18.90;34.40;;;;;;5031223;28;20391;-69
2023/08/09 08:29:08;;;;;;;4.68;3.90;;;18.90;34.40;;;;;;5031190;28;20445;-71
2023/08/09 08:31:34;;;;;;;6.87;5.20;;;18.90;35.50;;;;;;5031351;28;20449;-70
2023/08/09 08:34:00;;;;;;;7.90;5.40;;;19.10;37.70;;;;;;5031824;28;20410;-70
2023/08/09 08:36:25;;;;;;;8.27;5.10;;;19.00;36.60;;;;;;5031834;28;20383;-69
2023/08/09 08:38:52;;;;;;;9.43;5.85;;;19.00;37.20;;;;;;5030443;28;20760;-70
2023/08/09 08:41:18;;;;;;;8.65;6.03;;;19.00;36.70;;;;;;5030054;28;20407;-70
2023/08/09 08:43:45;;;;;;;7.82;5.30;;;19.00;36.50;;;;;;5031245;28;20490;-71
2023/08/09 08:46:15;;;;;;;7.65;5.20;;;18.90;36.40;;;;;;5030610;28;20871;-72
2023/08/09 08:48:46;;;;;;;7.13;5.90;;;18.90;37.30;;;;;;5011346;28;20396;-71
2023/08/09 08:51:12;;;;;;;10.60;5.93;;;19.00;36.20;;;;;;5025611;28;20891;-71
2023/08/09 08:53:38;;;;;;;7.55;5.20;;;19.30;36.80;;;;;;5031500;28;20403;-70
2023/08/09 08:56:04;;;;;;;6.90;4.90;;;19.30;35.30;;;;;;5031683;28;20445;-73
2023/08/09 08:58:31;;;;;;;8.37;5.30;;;19.30;34.20;;;;;;5030202;28;20461;-70
2023/08/09 09:00:57;;;;;;;9.18;4.35;;;19.50;33.40;;;;;;5013362;28;20387;-71
2023/08/09 09:03:22;;;;;;;9.82;4.15;;;20.00;31.40;;;;;;5030611;28;20410;-71
2023/08/09 09:05:48;;;;;;;9.25;4.47;;;20.10;31.00;;;;;;5030486;28;20390;-70
2023/08/09 09:08:14;;;;;;;9.80;4.60;;;20.10;31.60;;;;;;5030176;28;20407;-71
2023/08/09 09:10:51;;;;;;;7.28;4.60;;;20.30;31.40;;;;;;5030958;28;20490;-72
2023/08/09 09:13:27;;;;;;;5.68;4.10;;;20.10;31.10;;;;;;5030705;28;20394;-71
2023/08/09 09:15:57;;;;;;;8.45;4.93;;;19.70;32.10;;;;;;5030823;28;20401;-70
2023/08/09 09:18:23;;;;;;;8.23;5.10;;;19.60;32.00;;;;;;5030654;28;20403;-71
2023/08/09 09:20:49;;;;;;;7.15;4.80;;;19.60;31.00;;;;;;5030570;28;20756;-71
2023/08/09 09:23:28;;;;;;;7.35;4.25;;;19.70;31.70;;;;;;5030494;28;20379;-71
2023/08/09 09:26:18;;;;;;;7.10;4.20;;;19.80;29.80;;;;;;5030628;28;20379;-70
2023/08/09 09:28:45;;;;;;;5.30;3.70;;;20.00;28.80;;;;;;5030600;28;20414;-70
2023/08/09 09:31:19;;;;;;;9.35;4.30;;;20.00;29.50;;;;;;5030420;28;20593;-71
2023/08/09 09:33:49;;;;;;;6.43;4.15;;;19.90;30.40;;;;;;5030259;28;20383;-71
2023/08/09 09:36:16;;;;;;;7.03;4.30;;;20.10;29.90;;;;;;5030388;28;20389;-70
2023/08/09 09:38:43;;;;;;;8.63;4.30;;;20.30;29.60;;;;;;5030527;28;20414;-71
2023/08/09 09:41:10;;;;;;;6.40;4.07;;;20.50;28.30;;;;;;5030732;28;20383;-72
2023/08/09 09:43:41;;;;;;;5.80;4.25;;;20.40;28.70;;;;;;5030490;28;20386;-70
2023/08/09 09:46:20;;;;;;;8.07;4.00;;;20.60;28.30;;;;;;5030137;28;20375;-71
2023/08/09 09:48:48;;;;;;;9.40;3.95;;;20.80;27.10;;;;;;5012353;28;20403;-70
2023/08/09 09:51:19;;;;;;;13.85;4.10;;;20.80;27.50;;;;;;5029994;28;20761;-70
2023/08/09 09:53:48;;;;;;;11.53;4.20;;;20.70;27.90;;;;;;5030713;28;20458;-71
2023/08/09 09:56:15;;;;;;;7.63;3.60;;;20.90;27.20;;;;;;5031069;28;20756;-72
2023/08/09 09:58:41;;;;;;;8.63;3.70;;;20.90;26.90;;;;;;5029961;28;20414;-70
2023/08/09 10:01:09;;;;;;;7.67;3.80;;;21.20;26.20;;;;;;5030233;28;20491;-70
2023/08/09 10:03:38;;;;;;;6.07;3.63;;;21.20;26.50;;;;;;5032194;28;20791;-71
2023/08/09 10:06:08;;;;;;;6.22;3.63;;;21.20;27.00;;;;;;5034249;28;20390;-70
2023/08/09 10:08:34;;;;;;;5.47;4.00;;;21.10;26.20;;;;;;5034110;28;20475;-71
2023/08/09 10:11:02;;;;;;;5.68;3.60;;;21.10;25.70;;;;;;5034010;28;20391;-72
2023/08/09 10:13:30;;;;;;;6.70;3.78;;;21.10;26.30;;;;;;5033970;28;20924;-71
2023/08/09 10:16:03;;;;;;;3.20;2.55;;;21.60;26.00;;;;;;5033811;28;20401;-71
2023/08/09 10:18:38;;;;;;;5.30;2.70;;;21.90;23.10;;;;;;5033512;28;20422;-70
2023/08/09 10:21:05;;;;;;;4.88;2.50;;;22.20;21.00;;;;;;5033637;28;20430;-71
2023/08/09 10:23:31;;;;;;;6.73;2.97;;;22.20;21.10;;;;;;5034099;28;20387;-70
2023/08/09 10:25:57;;;;;;;5.63;2.43;;;22.40;21.00;;;;;;5034100;28;20383;-70
2023/08/09 10:28:47;;;;;;;4.63;2.63;;;22.50;22.40;;;;;;5034106;28;20482;-71
2023/08/09 10:31:13;;;;;;;4.22;2.28;;;22.40;19.90;;;;;;5034410;28;20383;-71
2023/08/09 10:34:07;;;;;;;4.10;2.30;;;22.20;21.10;;;;;;5034700;28;20888;-71
2023/08/09 10:36:33;;;;;;;3.78;1.90;;;22.30;18.80;;;;;;5016662;28;20513;-71
2023/08/09 10:39:08;;;;;;;4.90;2.10;;;22.80;18.90;;;;;;5033801;28;20945;-70
2023/08/09 10:41:34;;;;;;;3.45;2.00;;;23.10;17.00;;;;;;5033048;28;20490;-71
2023/08/09 10:44:03;;;;;;;5.13;2.40;;;23.30;17.60;;;;;;5033591;28;20936;-70
2023/08/09 10:46:33;;;;;;;3.60;2.30;;;23.30;18.30;;;;;;5033273;28;20383;-70
2023/08/09 10:49:03;;;;;;;3.80;2.20;;;23.10;18.80;;;;;;5033916;28;20883;-71
2023/08/09 10:51:29;;;;;;;5.68;2.20;;;23.10;19.10;;;;;;5033555;28;20464;-71
2023/08/09 10:54:03;;;;;;;4.78;2.40;;;23.30;17.30;;;;;;5033308;28;20420;-71
2023/08/09 10:56:33;;;;;;;5.30;2.20;;;23.40;17.20;;;;;;5033037;28;20387;-71
2023/08/09 10:59:13;;;;;;;3.42;2.20;;;23.60;16.90;;;;;;5032180;28;20450;-71
2023/08/09 11:01:40;;;;;;;3.97;2.15;;;23.70;16.10;;;;;;5030926;28;20470;-71
2023/08/09 11:04:12;;;;;;;4.30;2.30;;;23.40;16.30;;;;;;5027128;28;20402;-72
2023/08/09 11:06:40;;;;;;;4.47;2.08;;;23.20;17.20;;;;;;5030956;28;20383;-72
2023/08/09 11:09:11;;;;;;;4.88;2.40;;;23.30;17.50;;;;;;5029933;28;20485;-71
2023/08/09 11:11:38;;;;;;;6.60;2.33;;;23.60;16.40;;;;;;5029681;28;20395;-70
2023/08/09 11:14:04;;;;;;;5.15;2.40;;;24.10;14.50;;;;;;5029706;28;20823;-70
2023/08/09 11:16:30;;;;;;;4.28;2.28;;;24.00;15.20;;;;;;5030244;28;20478;-72
2023/08/09 11:19:03;;;;;;;4.50;2.50;;;24.10;15.50;;;;;;5030810;28;20498;-71
2023/08/09 11:21:49;;;;;;;4.68;2.20;;;24.40;15.60;;;;;;5030278;28;20395;-72
2023/08/09 11:24:17;;;;;;;6.10;2.58;;;24.70;15.00;;;;;;5026766;28;20478;-70
2023/08/09 11:26:48;;;;;;;5.00;2.53;;;24.70;14.30;;;;;;5032560;28;20394;-70
2023/08/09 11:29:15;;;;;;;4.72;2.60;;;24.60;15.80;;;;;;5037495;28;20383;-70
2023/08/09 11:31:43;;;;;;;2.40;2.00;;;24.40;14.20;;;;;;5037590;28;20464;-71
2023/08/09 11:34:11;;;;;;;5.53;2.30;;;24.50;13.80;;;;;;5037942;28;20406;-71
2023/08/09 11:36:36;;;;;;;3.38;2.38;;;24.50;13.80;;;;;;5034682;28;20844;-70
2023/08/09 11:39:04;;;;;;;6.93;2.70;;;24.70;15.00;;;;;;5033770;28;20511;-70
2023/08/09 11:42:00;;;;;;;6.07;2.10;;;24.70;15.20;;;;;;5031561;28;20390;-70
2023/08/09 11:44:29;;;;;;;4.50;1.90;;;24.60;14.50;;;;;;5031097;28;20391;-70
2023/08/09 11:46:57;;;;;;;5.13;2.28;;;25.20;13.20;;;;;;5032431;28;20872;-70
2023/08/09 11:49:30;;;;;;;4.03;2.30;;;25.00;13.30;;;;;;5033201;28;20387;-70
2023/08/09 11:51:56;;;;;;;2.55;1.88;;;25.20;13.60;;;;;;5032206;28;20383;-70
2023/08/09 11:54:22;;;;;;;3.38;1.40;;;25.20;12.90;;;;;;5031721;28;20466;-72
2023/08/09 11:56:48;;;;;;;3.50;1.70;;;25.40;10.70;;;;;;5031519;28;20565;-70
2023/08/09 11:59:17;;;;;;;2.70;1.60;;;25.30;10.60;;;;;;5032084;28;20445;-71
2023/08/09 12:01:49;;;;;;;3.35;1.58;;;25.20;12.20;;;;;;5031977;28;20391;-70
2023/08/09 12:04:19;;;;;;;4.90;2.30;;;24.70;12.40;;;;;;5031925;28;20751;-72
2023/08/09 12:06:48;;;;;;;3.40;2.00;;;25.10;12.90;;;;;;5031707;28;20375;-71
2023/08/09 12:09:30;;;;;;;3.80;2.13;;;24.80;13.60;;;;;;5031488;28;20624;-70
2023/08/09 12:12:06;;;;;;;4.10;2.30;;;24.70;13.40;;;;;;5031358;28;20383;-71
2023/08/09 12:14:33;;;;;;;6.00;2.22;;;24.50;14.10;;;;;;5031784;28;20379;-71
2023/08/09 12:16:59;;;;;;;4.13;1.90;;;24.70;13.50;;;;;;5031565;28;20465;-72
2023/08/09 12:19:26;;;;;;;3.58;2.05;;;24.80;13.40;;;;;;5031373;28;20391;-72
2023/08/09 12:21:52;;;;;;;5.77;2.30;;;25.10;13.20;;;;;;5031499;28;20387;-70
2023/08/09 12:24:18;;;;;;;3.65;2.00;;;25.10;12.50;;;;;;5031150;28;20379;-71
2023/08/09 12:26:43;;;;;;;4.07;2.22;;;25.10;12.90;;;;;;5030828;28;20432;-70
2023/08/09 12:29:12;;;;;;;4.10;2.30;;;25.00;12.50;;;;;;5031412;28;20533;-70
2023/08/09 12:31:38;;;;;;;4.13;2.27;;;25.10;13.50;;;;;;5031034;28;20386;-70
2023/08/09 12:34:04;;;;;;;4.20;2.50;;;25.60;12.40;;;;;;5031208;28;20391;-71
2023/08/09 12:36:30;;;;;;;3.00;1.90;;;26.10;11.90;;;;;;5031540;28;20910;-71
2023/08/09 12:38:56;;;;;;;4.47;1.90;;;25.90;11.10;;;;;;5031096;28;20478;-71
2023/08/09 12:41:23;;;;;;;5.40;1.80;;;26.10;11.80;;;;;;5030781;28;20391;-71